createdAt,value
2023-06-01T00:02:13.390Z,9.60
2023-06-01T00:04:49.792Z,9.40
2023-06-01T00:07:20.830Z,9.70
2023-06-01T00:09:51.695Z,9.60
2023-06-01T00:12:22.567Z,9.60
2023-06-01T00:14:53.472Z,10.40
2023-06-01T00:17:24.624Z,11.30
2023-06-01T00:19:58.244Z,11.40
2023-06-01T00:22:30.058Z,11.40
2023-06-01T00:25:00.996Z,11.30
2023-06-01T00:27:31.813Z,11.60
2023-06-01T00:30:02.740Z,11.80
2023-06-01T00:32:33.701Z,12.00
2023-06-01T00:35:07.902Z,12.40
2023-06-01T00:37:38.721Z,11.50
2023-06-01T00:40:10.785Z,11.80
2023-06-01T00:42:41.695Z,12.40
2023-06-01T00:45:14.041Z,12.50
2023-06-01T00:47:46.758Z,13.20
2023-06-01T00:50:20.540Z,13.50
2023-06-01T00:52:53.287Z,13.30
2023-06-01T00:55:24.706Z,13.40
2023-06-01T00:57:56.855Z,13.50
2023-06-01T01:00:30.343Z,13.60
2023-06-01T01:03:08.410Z,13.40
2023-06-01T01:05:42.522Z,13.50
2023-06-01T01:08:21.731Z,13.50
2023-06-01T01:10:59.502Z,13.60
2023-06-01T01:13:35.068Z,13.20
2023-06-01T01:16:13.735Z,13.60
2023-06-01T01:18:55.639Z,14.40
2023-06-01T01:21:35.271Z,15.10
2023-06-01T01:24:32.147Z,15.60
2023-06-01T01:27:15.006Z,16.60
2023-06-01T01:29:50.709Z,16.70
2023-06-01T01:32:21.984Z,17.00
2023-06-01T01:34:54.061Z,17.20
2023-06-01T01:37:26.360Z,16.70
2023-06-01T01:39:57.285Z,16.00
2023-06-01T01:42:28.522Z,15.80
2023-06-01T01:45:02.396Z,15.50
2023-06-01T01:47:40.602Z,15.40
2023-06-01T01:50:15.953Z,15.60
2023-06-01T01:52:48.604Z,15.50
2023-06-01T01:55:25.015Z,15.70
2023-06-01T01:57:57.144Z,15.90
2023-06-01T02:00:31.506Z,16.50
2023-06-01T02:03:02.833Z,17.40
2023-06-01T02:05:33.902Z,17.30
2023-06-01T02:08:04.742Z,17.30
2023-06-01T02:10:35.769Z,16.90
2023-06-01T02:13:06.694Z,18.20
2023-06-01T02:15:40.223Z,20.90
2023-06-01T02:18:12.372Z,20.40
2023-06-01T02:20:43.281Z,20.60
2023-06-01T02:23:14.164Z,22.10
2023-06-01T02:25:44.984Z,22.90
2023-06-01T02:28:15.896Z,22.30
2023-06-01T02:30:49.726Z,22.90
2023-06-01T02:33:20.612Z,23.70
2023-06-01T02:35:51.633Z,24.50
2023-06-01T02:38:22.441Z,25.40
2023-06-01T02:40:53.366Z,25.60
2023-06-01T02:43:24.313Z,27.80
2023-06-01T02:45:57.868Z,27.60
2023-06-01T02:48:29.251Z,27.50
2023-06-01T02:51:00.569Z,27.20
2023-06-01T02:53:32.635Z,28.60
2023-06-01T02:56:03.745Z,29.30
2023-06-01T02:58:34.615Z,30.40
2023-06-01T03:01:09.118Z,31.10
2023-06-01T03:03:40.191Z,33.70
2023-06-01T03:06:11.534Z,42.30
2023-06-01T03:08:42.781Z,66.80
2023-06-01T03:11:13.793Z,68.40
2023-06-01T03:13:44.667Z,69.80
2023-06-01T03:16:19.133Z,70.00
2023-06-01T03:18:50.491Z,68.10
2023-06-01T03:21:21.650Z,66.50
2023-06-01T03:23:52.516Z,62.60
2023-06-01T03:26:23.706Z,67.20
2023-06-01T03:28:54.789Z,64.70
2023-06-01T03:31:28.333Z,61.10
2023-06-01T03:33:59.173Z,60.80
2023-06-01T03:36:30.105Z,62.50
2023-06-01T03:39:01.027Z,58.40
2023-06-01T03:41:32.479Z,58.20
2023-06-01T03:44:03.317Z,58.70
2023-06-01T03:46:36.866Z,55.00
2023-06-01T03:49:08.373Z,48.00
2023-06-01T03:51:39.655Z,49.30
2023-06-01T03:54:10.713Z,42.70
2023-06-01T03:56:41.768Z,43.80
2023-06-01T03:59:12.763Z,45.50
2023-06-01T04:01:49.515Z,43.10
2023-06-01T04:04:22.163Z,43.10
2023-06-01T04:06:53.087Z,39.40
2023-06-01T04:09:24.086Z,40.00
2023-06-01T04:11:54.902Z,36.90
2023-06-01T04:14:25.979Z,36.60
2023-06-01T04:17:00.150Z,35.70
2023-06-01T04:19:31.185Z,35.30
2023-06-01T04:22:05.116Z,33.90
2023-06-01T04:24:36.108Z,33.90
2023-06-01T04:27:08.346Z,30.00
2023-06-01T04:29:41.259Z,28.50
2023-06-01T04:32:22.708Z,27.80
2023-06-01T04:34:55.660Z,28.30
2023-06-01T04:37:27.406Z,28.10
2023-06-01T04:39:58.646Z,26.70
2023-06-01T04:42:31.286Z,26.90
2023-06-01T04:45:02.469Z,24.90
2023-06-01T04:47:37.894Z,25.60
2023-06-01T04:50:11.119Z,24.90
2023-06-01T04:52:42.749Z,24.70
2023-06-01T04:55:14.741Z,25.40
2023-06-01T04:57:46.876Z,25.70
2023-06-01T05:00:19.721Z,25.30
2023-06-01T05:02:54.193Z,24.50
2023-06-01T05:05:25.537Z,24.30
2023-06-01T05:07:56.423Z,23.20
2023-06-01T05:10:27.417Z,24.60
2023-06-01T05:12:58.407Z,25.50
2023-06-01T05:15:29.916Z,25.40
2023-06-01T05:18:03.422Z,24.70
2023-06-01T05:20:34.299Z,24.60
2023-06-01T05:23:05.308Z,25.00
2023-06-01T05:25:36.249Z,25.80
2023-06-01T05:28:08.021Z,24.70
2023-06-01T05:30:39.067Z,23.80
2023-06-01T05:33:12.926Z,24.40
2023-06-01T05:35:43.928Z,24.50
2023-06-01T05:38:16.160Z,24.20
2023-06-01T05:40:47.198Z,23.60
2023-06-01T05:43:18.802Z,23.30
2023-06-01T05:45:49.809Z,22.70
2023-06-01T05:48:23.283Z,22.80
2023-06-01T05:50:54.257Z,21.60
2023-06-01T05:53:26.273Z,21.60
2023-06-01T05:55:57.455Z,21.40
2023-06-01T05:58:28.309Z,21.90
2023-06-01T06:01:02.132Z,20.70
2023-06-01T06:03:35.942Z,20.50
2023-06-01T06:06:07.205Z,19.70
2023-06-01T06:08:38.139Z,19.40
2023-06-01T06:11:09.143Z,19.00
2023-06-01T06:13:40.076Z,19.50
2023-06-01T06:16:10.931Z,20.50
2023-06-01T06:18:44.346Z,19.50
2023-06-01T06:21:17.402Z,19.00
2023-06-01T06:23:50.188Z,17.70
2023-06-01T06:26:21.668Z,17.30
2023-06-01T06:28:52.503Z,16.30
2023-06-01T06:31:24.834Z,16.30
2023-06-01T06:33:58.355Z,16.20
2023-06-01T06:36:29.564Z,15.80
2023-06-01T06:39:00.899Z,14.80
2023-06-01T06:41:32.057Z,15.40
2023-06-01T06:44:02.976Z,13.80
2023-06-01T06:46:33.843Z,13.70
2023-06-01T06:49:07.616Z,12.80
2023-06-01T06:51:57.062Z,12.70
2023-06-01T06:54:27.981Z,13.20
2023-06-01T06:56:58.830Z,12.60
2023-06-01T06:59:29.804Z,12.90
2023-06-01T07:02:01.057Z,13.70
2023-06-01T07:04:35.096Z,11.90
2023-06-01T07:07:06.949Z,11.40
2023-06-01T07:09:37.845Z,10.60
2023-06-01T07:12:09.840Z,9.40
2023-06-01T07:14:40.828Z,7.40
2023-06-01T07:17:12.399Z,8.20
2023-06-01T07:19:46.563Z,9.50
2023-06-01T07:22:18.389Z,8.40
2023-06-01T07:24:49.187Z,8.30
2023-06-01T07:27:22.071Z,8.70
2023-06-01T07:29:56.282Z,8.10
2023-06-01T07:32:27.878Z,10.60
2023-06-01T07:35:03.148Z,10.80
2023-06-01T07:37:34.246Z,8.60
2023-06-01T07:40:08.464Z,7.00
2023-06-01T07:42:39.852Z,7.90
2023-06-01T07:45:12.194Z,5.40
2023-06-01T07:47:43.692Z,6.30
2023-06-01T07:50:17.272Z,4.10
2023-06-01T07:52:48.226Z,5.00
2023-06-01T07:55:19.312Z,4.50
2023-06-01T07:57:50.377Z,1.80
2023-06-01T08:00:23.576Z,3.00
2023-06-01T08:02:54.608Z,2.70
2023-06-01T08:05:28.292Z,3.60
2023-06-01T08:08:00.147Z,1.50
2023-06-01T08:10:31.358Z,2.20
2023-06-01T08:13:03.454Z,2.30
2023-06-01T08:15:35.382Z,2.10
2023-06-01T08:18:07.676Z,1.40
2023-06-01T08:20:41.336Z,3.10
2023-06-01T08:23:12.233Z,3.30
2023-06-01T08:25:43.828Z,1.20
2023-06-01T08:28:14.757Z,1.00
2023-06-01T08:30:45.726Z,2.20
2023-06-01T08:33:17.196Z,1.00
2023-06-01T08:35:51.223Z,1.00
2023-06-01T08:38:22.596Z,1.00
2023-06-01T08:40:54.044Z,1.00
2023-06-01T08:43:26.485Z,1.00
2023-06-01T08:45:59.752Z,1.10
2023-06-01T08:48:31.550Z,1.00
2023-06-01T08:51:05.219Z,1.00
2023-06-01T08:53:38.175Z,2.10
2023-06-01T08:56:09.882Z,1.30
2023-06-01T08:58:42.257Z,1.00
2023-06-01T09:01:15.117Z,1.00
2023-06-01T09:03:46.137Z,1.00
2023-06-01T09:06:20.676Z,1.10
2023-06-01T09:08:51.641Z,1.00
2023-06-01T09:11:23.776Z,1.00
2023-06-01T09:13:54.713Z,1.00
2023-06-01T09:16:26.011Z,1.00
2023-06-01T09:18:57.527Z,1.00
2023-06-01T09:21:31.365Z,1.00
2023-06-01T09:24:23.390Z,1.00
2023-06-01T09:26:56.240Z,1.00
2023-06-01T09:29:28.508Z,1.00
2023-06-01T09:31:59.360Z,1.00
2023-06-01T09:34:31.802Z,1.00
2023-06-01T09:37:11.400Z,1.00
2023-06-01T09:39:42.356Z,1.00
2023-06-01T09:42:13.791Z,1.00
2023-06-01T09:44:46.233Z,1.00
2023-06-01T09:47:17.176Z,1.00
2023-06-01T09:49:49.370Z,1.00
2023-06-01T09:52:22.789Z,1.00
2023-06-01T09:54:59.586Z,1.00
2023-06-01T09:57:32.597Z,1.00
2023-06-01T10:00:06.695Z,1.00
2023-06-01T10:02:38.269Z,1.00
2023-06-01T10:05:09.726Z,1.00
2023-06-01T10:07:43.183Z,1.00
2023-06-01T10:10:18.063Z,1.00
2023-06-01T10:12:51.411Z,1.00
2023-06-01T10:15:31.049Z,1.00
2023-06-01T10:18:03.612Z,1.00
2023-06-01T10:20:37.371Z,1.00
2023-06-01T10:23:22.923Z,1.00
2023-06-01T10:26:02.915Z,1.00
2023-06-01T10:28:34.684Z,1.00
2023-06-01T10:31:35.570Z,1.00
2023-06-01T10:34:07.635Z,1.00
2023-06-01T10:37:15.566Z,1.00
2023-06-01T10:39:49.147Z,1.00
2023-06-01T10:42:39.051Z,1.00
2023-06-01T10:45:12.307Z,1.00
2023-06-01T10:47:51.912Z,1.00
2023-06-01T10:50:23.450Z,1.00
2023-06-01T10:52:54.702Z,1.00
2023-06-01T10:55:29.971Z,1.00
2023-06-01T10:58:28.792Z,1.00
2023-06-01T11:01:00.161Z,1.00
2023-06-01T11:03:47.388Z,1.00
2023-06-01T11:06:32.941Z,1.00
2023-06-01T11:09:06.885Z,1.00
2023-06-01T11:12:07.827Z,1.00
2023-06-01T11:14:40.783Z,1.00
2023-06-01T11:17:31.028Z,1.00
2023-06-01T11:20:12.399Z,1.00
2023-06-01T11:22:43.510Z,1.00
2023-06-01T11:25:20.566Z,1.00
2023-06-01T11:27:56.640Z,1.00
2023-06-01T11:30:28.158Z,1.00
2023-06-01T11:33:01.215Z,1.00
2023-06-01T11:35:32.442Z,1.00
2023-06-01T11:38:03.649Z,1.00
2023-06-01T11:40:39.597Z,1.00
2023-06-01T11:43:13.672Z,1.00
2023-06-01T11:45:44.883Z,1.00
2023-06-01T11:48:16.347Z,1.00
2023-06-01T11:50:51.213Z,1.00
2023-06-01T11:53:22.460Z,1.00
2023-06-01T11:55:53.564Z,1.00
2023-06-01T11:58:28.894Z,1.00
2023-06-01T12:01:01.856Z,1.00
2023-06-01T12:03:33.242Z,1.00
2023-06-01T12:06:04.260Z,1.00
2023-06-01T12:08:35.449Z,1.00
2023-06-01T12:11:07.019Z,1.00
2023-06-01T12:13:41.114Z,1.00
2023-06-01T12:18:52.262Z,1.00
2023-06-01T12:21:23.156Z,1.00
2023-06-01T12:23:54.961Z,1.00
2023-06-01T12:26:26.078Z,1.00
2023-06-01T12:29:01.307Z,1.00
2023-06-01T12:31:32.417Z,1.00
2023-06-01T12:34:04.211Z,1.00
2023-06-01T12:36:36.790Z,1.00
2023-06-01T12:39:08.710Z,1.00
2023-06-01T12:41:39.541Z,1.00
2023-06-01T12:44:13.308Z,1.00
2023-06-01T12:46:44.493Z,1.00
2023-06-01T12:49:17.672Z,1.00
2023-06-01T12:51:48.552Z,1.00
2023-06-01T12:54:19.666Z,1.00
2023-06-01T12:56:52.324Z,1.00
2023-06-01T12:59:25.822Z,1.00
2023-06-01T13:01:56.755Z,1.00
2023-06-01T13:04:28.025Z,1.00
2023-06-01T13:06:59.353Z,1.00
2023-06-01T13:09:30.221Z,1.00
2023-06-01T13:12:01.635Z,1.00
2023-06-01T13:14:35.445Z,1.00
2023-06-01T13:17:06.445Z,1.00
2023-06-01T13:19:37.772Z,1.00
2023-06-01T13:22:10.707Z,1.00
2023-06-01T13:24:53.543Z,1.00
2023-06-01T13:27:33.291Z,1.00
2023-06-01T13:30:08.941Z,1.00
2023-06-01T13:32:40.188Z,1.00
2023-06-01T13:35:12.439Z,1.00
2023-06-01T13:37:43.306Z,1.00
2023-06-01T13:40:14.574Z,1.00
2023-06-01T13:42:45.456Z,1.00
2023-06-01T13:45:19.243Z,1.00
2023-06-01T13:47:50.459Z,1.00
2023-06-01T13:50:21.562Z,1.00
2023-06-01T13:52:53.825Z,1.00
2023-06-01T13:55:26.315Z,1.00
2023-06-01T13:57:57.191Z,1.00
2023-06-01T14:00:31.129Z,1.00
2023-06-01T14:03:02.257Z,1.00
2023-06-01T14:05:48.515Z,1.00
2023-06-01T14:08:21.699Z,1.00
2023-06-01T14:10:52.672Z,1.00
2023-06-01T14:13:23.509Z,1.00
2023-06-01T14:15:57.027Z,1.00
2023-06-01T14:18:28.191Z,1.00
2023-06-01T14:20:59.598Z,1.00
2023-06-01T14:23:30.613Z,1.00
2023-06-01T14:26:01.872Z,1.00
2023-06-01T14:28:32.928Z,1.00
2023-06-01T14:31:06.880Z,1.00
2023-06-01T14:33:38.262Z,1.00
2023-06-01T14:36:09.726Z,1.00
2023-06-01T14:38:40.798Z,1.00
2023-06-01T14:41:11.777Z,1.00
2023-06-01T14:43:42.631Z,1.00
2023-06-01T14:46:16.505Z,1.00
2023-06-01T14:48:47.952Z,1.00
2023-06-01T14:51:19.208Z,1.00
2023-06-01T14:53:50.314Z,1.00
2023-06-01T14:56:22.149Z,1.00
2023-06-01T14:58:53.334Z,1.00
2023-06-01T15:01:27.896Z,1.00
2023-06-01T15:03:58.917Z,1.00
2023-06-01T15:06:29.770Z,1.00
2023-06-01T15:09:01.293Z,1.00
2023-06-01T15:11:32.322Z,1.00
2023-06-01T15:14:03.188Z,1.00
2023-06-01T15:16:39.049Z,1.00
2023-06-01T15:19:11.344Z,1.00
2023-06-01T15:21:42.817Z,1.00
2023-06-01T15:24:13.713Z,1.00
2023-06-01T15:26:45.384Z,1.00
2023-06-01T15:29:16.637Z,1.00
2023-06-01T15:31:50.054Z,1.00
2023-06-01T15:34:21.168Z,1.00
2023-06-01T15:36:52.114Z,1.00
2023-06-01T15:39:23.009Z,1.00
2023-06-01T15:44:28.282Z,1.00
2023-06-01T15:47:02.291Z,1.00
2023-06-01T15:49:33.462Z,1.00
2023-06-01T15:52:05.170Z,1.00
2023-06-01T15:54:36.393Z,1.00
2023-06-01T15:57:08.932Z,1.00
2023-06-01T15:59:40.092Z,1.00
2023-06-01T16:02:13.623Z,1.00
2023-06-01T16:04:44.526Z,1.00
2023-06-01T16:07:15.470Z,1.00
2023-06-01T16:09:46.375Z,1.00
2023-06-01T16:12:17.379Z,1.00
2023-06-01T16:14:48.588Z,1.00
2023-06-01T16:17:22.135Z,1.00
2023-06-01T16:19:53.351Z,1.00
2023-06-01T16:22:24.556Z,1.00
2023-06-01T16:24:55.776Z,1.00
2023-06-01T16:27:26.813Z,1.00
2023-06-01T16:29:57.799Z,1.00
2023-06-01T16:32:31.400Z,1.00
2023-06-01T16:35:02.770Z,1.00
2023-06-01T16:37:33.716Z,1.00
2023-06-01T16:40:04.710Z,1.00
2023-06-01T16:42:35.770Z,1.00
2023-06-01T16:45:07.798Z,1.00
2023-06-01T16:47:41.326Z,1.00
2023-06-01T16:50:13.377Z,1.00
2023-06-01T16:52:44.317Z,1.00
2023-06-01T16:55:15.296Z,1.00
2023-06-01T16:57:46.437Z,1.00
2023-06-01T17:00:18.469Z,1.00
2023-06-01T17:02:52.063Z,1.00
2023-06-01T17:05:23.028Z,1.00
2023-06-01T17:07:54.158Z,1.00
2023-06-01T17:10:25.345Z,1.00
2023-06-01T17:12:56.192Z,1.00
2023-06-01T17:15:30.307Z,1.00
2023-06-01T17:18:04.391Z,1.00
2023-06-01T17:20:35.281Z,1.00
2023-06-01T17:23:06.135Z,1.00
2023-06-01T17:25:37.022Z,1.00
2023-06-01T17:28:07.952Z,1.00
2023-06-01T17:30:39.015Z,1.00
2023-06-01T17:33:13.521Z,1.00
2023-06-01T17:35:44.508Z,1.00
2023-06-01T17:38:15.628Z,1.00
2023-06-01T17:40:46.624Z,1.00
2023-06-01T17:43:17.825Z,1.00
2023-06-01T17:45:48.719Z,1.00
2023-06-01T17:48:22.322Z,1.00
2023-06-01T17:50:54.499Z,1.40
2023-06-01T17:53:40.306Z,1.30
2023-06-01T17:56:12.205Z,1.40
2023-06-01T17:58:43.131Z,1.40
2023-06-01T18:01:14.543Z,2.30
2023-06-01T18:03:48.059Z,2.00
2023-06-01T18:06:19.077Z,1.70
2023-06-01T18:08:50.041Z,1.60
2023-06-01T18:11:22.017Z,2.10
2023-06-01T18:13:53.434Z,1.40
2023-06-01T18:16:24.424Z,2.30
2023-06-01T18:18:58.201Z,2.30
2023-06-01T18:21:29.615Z,1.30
2023-06-01T18:24:00.490Z,1.10
2023-06-01T18:26:31.357Z,1.40
2023-06-01T18:29:02.287Z,1.70
2023-06-01T18:31:33.281Z,1.60
2023-06-01T18:34:07.068Z,2.10
2023-06-01T18:36:37.973Z,1.00
2023-06-01T18:39:10.414Z,1.60
2023-06-01T18:41:42.407Z,2.40
2023-06-01T18:44:13.411Z,1.90
2023-06-01T18:46:45.475Z,1.70
2023-06-01T18:49:21.452Z,2.60
2023-06-01T18:51:54.627Z,1.70
2023-06-01T18:54:25.523Z,1.20
2023-06-01T18:56:56.753Z,1.00
2023-06-01T18:59:28.817Z,1.00
2023-06-01T19:02:00.140Z,1.00
2023-06-01T19:04:33.711Z,1.00
2023-06-01T19:07:05.787Z,1.00
2023-06-01T19:09:43.724Z,1.40
2023-06-01T19:12:15.433Z,2.00
2023-06-01T19:14:48.004Z,1.40
2023-06-01T19:17:19.183Z,1.50
2023-06-01T19:19:53.996Z,1.00
2023-06-01T19:22:32.765Z,1.60
2023-06-01T19:25:04.273Z,1.50
2023-06-01T19:27:35.277Z,2.10
2023-06-01T19:30:06.520Z,2.50
2023-06-01T19:32:37.397Z,3.40
2023-06-01T19:35:11.085Z,2.20
2023-06-01T19:37:41.898Z,3.00
2023-06-01T19:40:13.777Z,2.90
2023-06-01T19:42:44.901Z,2.80
2023-06-01T19:45:22.223Z,3.00
2023-06-01T19:47:55.017Z,3.50
2023-06-01T19:50:47.267Z,3.40
2023-06-01T19:53:18.902Z,4.60
2023-06-01T19:55:51.120Z,3.80
2023-06-01T19:58:23.655Z,4.10
2023-06-01T20:00:55.803Z,3.70
2023-06-01T20:03:40.716Z,4.30
2023-06-01T20:06:18.589Z,4.50
2023-06-01T20:08:51.355Z,4.40
2023-06-01T20:11:23.277Z,4.40
2023-06-01T20:13:54.237Z,4.40
2023-06-01T20:16:25.266Z,4.40
2023-06-01T20:18:56.171Z,4.30
2023-06-01T20:21:29.706Z,4.30
2023-06-01T20:24:00.785Z,4.40
2023-06-01T20:26:32.195Z,4.20
2023-06-01T20:29:03.498Z,4.70
2023-06-01T20:31:34.641Z,4.60
2023-06-01T20:34:13.440Z,5.20
2023-06-01T20:36:47.320Z,4.70
2023-06-01T20:39:19.400Z,5.20
2023-06-01T20:41:52.507Z,5.00
2023-06-01T20:44:24.547Z,5.30
2023-06-01T20:46:56.623Z,5.50
2023-06-01T20:49:29.419Z,5.40
2023-06-01T20:52:02.931Z,5.60
2023-06-01T20:54:33.776Z,5.60
2023-06-01T20:57:04.795Z,5.30
2023-06-01T20:59:36.148Z,5.40
2023-06-01T21:02:10.249Z,4.70
2023-06-01T21:04:43.489Z,4.90
2023-06-01T21:07:16.997Z,5.00
2023-06-01T21:09:48.194Z,4.30
2023-06-01T21:12:19.213Z,4.30
2023-06-01T21:14:50.284Z,3.80
2023-06-01T21:17:21.461Z,4.60
2023-06-01T21:19:52.471Z,4.20
2023-06-01T21:22:26.286Z,4.60
2023-06-01T21:27:38.340Z,4.60
2023-06-01T21:30:11.286Z,4.30
2023-06-01T21:32:43.953Z,4.10
2023-06-01T21:35:14.962Z,3.90
2023-06-01T21:37:48.729Z,3.90
2023-06-01T21:40:20.287Z,3.60
2023-06-01T21:42:51.376Z,4.50
2023-06-01T21:45:22.339Z,4.30
2023-06-01T21:47:53.447Z,4.00
2023-06-01T21:50:25.403Z,4.20
2023-06-01T21:52:59.301Z,4.60
2023-06-01T21:55:30.357Z,3.90
2023-06-01T21:58:01.622Z,3.80
2023-06-01T22:00:32.593Z,4.30
2023-06-01T22:03:03.980Z,4.10
2023-06-01T22:05:36.565Z,3.70
2023-06-01T22:08:10.125Z,3.70
2023-06-01T22:10:41.367Z,4.40
2023-06-01T22:13:12.534Z,3.80
2023-06-01T22:15:44.382Z,3.70
2023-06-01T22:18:15.599Z,3.50
2023-06-01T22:20:46.626Z,4.00
2023-06-01T22:23:22.717Z,3.40
2023-06-01T22:25:53.719Z,3.50
2023-06-01T22:28:25.703Z,2.80
2023-06-01T22:30:56.728Z,2.80
2023-06-01T22:33:31.205Z,3.30
2023-06-01T22:36:04.254Z,1.70
2023-06-01T22:38:38.341Z,2.10
2023-06-01T22:41:09.281Z,2.20
2023-06-01T22:43:40.291Z,2.20
2023-06-01T22:46:11.357Z,2.80
2023-06-01T22:48:42.697Z,2.40
2023-06-01T22:51:13.779Z,2.90
2023-06-01T22:53:47.475Z,2.20
2023-06-01T22:56:18.429Z,2.60
2023-06-01T22:58:49.569Z,2.60
2023-06-01T23:01:20.592Z,2.70
2023-06-01T23:03:52.124Z,2.50
2023-06-01T23:06:23.790Z,2.30
2023-06-01T23:08:58.557Z,2.50
2023-06-01T23:11:33.299Z,2.30
2023-06-01T23:14:12.737Z,3.40
2023-06-01T23:16:46.715Z,3.20
2023-06-01T23:19:20.873Z,3.40
2023-06-01T23:21:56.022Z,2.20
2023-06-01T23:24:30.031Z,2.50
2023-06-01T23:27:01.685Z,2.40
2023-06-01T23:29:33.221Z,2.30
2023-06-01T23:32:04.479Z,2.00
2023-06-01T23:34:36.265Z,2.00
2023-06-01T23:37:14.510Z,2.80
2023-06-01T23:39:48.147Z,1.50
2023-06-01T23:42:19.709Z,2.20
2023-06-01T23:44:50.724Z,2.40
2023-06-01T23:47:22.116Z,2.40
2023-06-01T23:49:53.169Z,2.40
2023-06-01T23:52:24.187Z,1.80
2023-06-01T23:54:57.698Z,2.30
2023-06-01T23:57:28.840Z,2.10
2023-06-01T23:59:59.772Z,3.10
